createdAt,value
2018-11-01T00:00:17.315Z,100227.59
2018-11-01T00:01:25.991Z,100224.04
2018-11-01T00:02:29.399Z,100219.69
2018-11-01T00:03:33.489Z,100219.12
2018-11-01T00:04:36.940Z,100219.69
2018-11-01T00:05:40.317Z,100218.88
2018-11-01T00:06:43.721Z,100221.62
2018-11-01T00:07:47.161Z,100215.89
2018-11-01T00:08:50.574Z,100214.52
2018-11-01T00:09:53.951Z,100213.16
2018-11-01T00:10:57.345Z,100215.09
2018-11-01T00:12:00.741Z,100214.28
2018-11-01T00:13:04.162Z,100204.67
2018-11-01T00:14:08.034Z,100208.80
2018-11-01T00:15:13.097Z,100205.25
2018-11-01T00:16:16.641Z,100204.67
2018-11-01T00:17:20.081Z,100197.58
2018-11-01T00:18:23.496Z,100194.59
2018-11-01T00:19:26.881Z,100198.71
2018-11-01T00:20:30.330Z,100193.79
2018-11-01T00:21:33.758Z,100198.47
2018-11-01T00:22:37.138Z,100214.36
2018-11-01T00:23:40.910Z,100216.30
2018-11-01T00:24:44.292Z,100230.59
2018-11-01T00:25:47.698Z,100227.28
2018-11-01T00:26:51.149Z,100228.65
2018-11-01T00:27:54.528Z,100231.16
2018-11-01T00:28:57.929Z,100224.86
2018-11-01T00:30:01.360Z,100231.16
2018-11-01T00:31:04.886Z,100233.89
2018-11-01T00:32:08.308Z,100237.77
2018-11-01T00:33:11.856Z,100235.03
2018-11-01T00:34:15.256Z,100236.16
2018-11-01T00:35:18.661Z,100236.16
2018-11-01T00:36:22.156Z,100238.91
2018-11-01T00:37:25.572Z,100239.47
2018-11-01T00:38:28.944Z,100241.40
2018-11-01T00:39:32.449Z,100239.79
2018-11-01T00:40:35.869Z,100244.95
2018-11-01T00:41:39.576Z,100240.59
2018-11-01T00:42:43.758Z,100239.79
2018-11-01T00:43:47.322Z,100242.30
2018-11-01T00:44:50.708Z,100245.03
2018-11-01T00:45:54.104Z,100249.15
2018-11-01T00:46:57.514Z,100245.03
2018-11-01T00:48:00.961Z,100249.15
2018-11-01T00:49:04.386Z,100251.05
2018-11-01T00:50:10.432Z,100250.25
2018-11-01T00:51:13.843Z,100244.20
2018-11-01T00:52:17.329Z,100245.57
2018-11-01T00:53:20.733Z,100239.84
2018-11-01T00:54:24.139Z,100234.92
2018-11-01T00:55:27.553Z,100234.11
2018-11-01T00:56:30.977Z,100231.38
2018-11-01T00:57:34.397Z,100234.67
2018-11-01T00:58:37.804Z,100240.16
2018-11-01T00:59:41.206Z,100235.48
2018-11-01T01:00:44.712Z,100237.18
2018-11-01T01:01:48.130Z,100235.81
2018-11-01T01:02:51.547Z,100236.38
2018-11-01T01:03:54.952Z,100235.23
2018-11-01T01:04:58.499Z,100233.39
2018-11-01T01:06:01.932Z,100234.28
2018-11-01T01:07:05.678Z,100233.39
2018-11-01T01:08:09.130Z,100235.33
2018-11-01T01:09:13.984Z,100250.41
2018-11-01T01:10:18.392Z,100246.30
2018-11-01T01:11:21.804Z,100249.04
2018-11-01T01:12:25.182Z,100252.34
2018-11-01T01:13:28.567Z,100250.41
2018-11-01T01:14:32.015Z,100244.69
2018-11-01T01:15:35.578Z,100244.69
2018-11-01T01:16:39.024Z,100248.55
2018-11-01T01:17:42.408Z,100247.19
2018-11-01T01:18:45.883Z,100249.92
2018-11-01T01:19:49.272Z,100250.49
2018-11-01T01:20:52.662Z,100249.69
2018-11-01T01:21:56.022Z,100246.94
2018-11-01T01:22:59.467Z,100243.39
2018-11-01T01:24:03.051Z,100236.53
2018-11-01T01:25:08.877Z,100240.65
2018-11-01T01:26:12.308Z,100230.00
2018-11-01T01:27:15.837Z,100240.97
2018-11-01T01:28:19.240Z,100234.92
2018-11-01T01:29:22.640Z,100238.23
2018-11-01T01:30:26.018Z,100243.47
2018-11-01T01:31:29.663Z,100243.47
2018-11-01T01:32:33.187Z,100252.27
2018-11-01T01:33:36.621Z,100254.44
2018-11-01T01:34:40.084Z,100254.20
2018-11-01T01:35:43.480Z,100252.02
2018-11-01T01:36:46.948Z,100250.09
2018-11-01T01:37:50.381Z,100245.97
2018-11-01T01:38:53.742Z,100245.41
2018-11-01T01:39:57.160Z,100236.13
2018-11-01T01:41:00.647Z,100226.53
2018-11-01T01:42:04.137Z,100227.91
2018-11-01T01:43:07.552Z,100233.95
2018-11-01T01:44:11.019Z,100231.75
2018-11-01T01:45:14.805Z,100227.09
2018-11-01T01:46:18.231Z,100221.34
2018-11-01T01:47:21.686Z,100228.20
2018-11-01T01:48:25.068Z,100234.25
2018-11-01T01:49:28.720Z,100239.73
2018-11-01T01:50:32.135Z,100230.70
2018-11-01T01:51:35.605Z,100229.89
2018-11-01T01:52:39.008Z,100238.36
2018-11-01T01:53:42.385Z,100226.58
2018-11-01T01:54:45.786Z,100231.80
2018-11-01T01:55:49.251Z,100227.15
2018-11-01T01:56:52.657Z,100228.25
2018-11-01T01:57:56.040Z,100226.87
2018-11-01T01:58:59.427Z,100220.58
2018-11-01T02:00:02.893Z,100221.14
2018-11-01T02:01:06.725Z,100228.25
2018-11-01T02:02:10.102Z,100228.56
2018-11-01T02:03:13.484Z,100234.86
2018-11-01T02:04:16.861Z,100221.71
2018-11-01T02:05:20.268Z,100220.91
2018-11-01T02:06:23.684Z,100218.97
2018-11-01T02:07:27.067Z,100217.36
2018-11-01T02:08:30.568Z,100216.80
2018-11-01T02:09:33.978Z,100211.62
2018-11-01T02:10:37.348Z,100206.95
2018-11-01T02:11:41.670Z,100209.45
2018-11-01T02:12:45.099Z,100202.03
2018-11-01T02:13:48.512Z,100205.58
2018-11-01T02:14:51.934Z,100206.14
2018-11-01T02:15:55.298Z,100199.05
2018-11-01T02:16:58.724Z,100202.36
2018-11-01T02:18:02.171Z,100200.98
2018-11-01T02:19:06.224Z,100205.66
2018-11-01T02:20:12.624Z,100200.74
2018-11-01T02:21:16.031Z,100207.84
2018-11-01T02:22:19.451Z,100205.42
2018-11-01T02:23:22.900Z,100204.05
2018-11-01T02:24:26.367Z,100205.42
2018-11-01T02:25:29.857Z,100204.61
2018-11-01T02:26:33.456Z,100204.61
2018-11-01T02:27:42.337Z,100206.79
2018-11-01T02:28:45.732Z,100201.88
2018-11-01T02:29:49.109Z,100197.76
2018-11-01T02:30:52.534Z,100193.41
2018-11-01T02:31:56.158Z,100196.14
2018-11-01T02:32:59.599Z,100195.91
2018-11-01T02:34:03.125Z,100197.52
2018-11-01T02:35:07.675Z,100191.79
2018-11-01T02:36:11.067Z,100190.42
2018-11-01T02:37:15.400Z,100197.27
2018-11-01T02:38:18.847Z,100193.16
2018-11-01T02:39:22.247Z,100190.17
2018-11-01T02:40:25.648Z,100190.17
2018-11-01T02:41:29.024Z,100188.56
2018-11-01T02:42:32.462Z,100192.92
2018-11-01T02:43:35.859Z,100192.11
2018-11-01T02:44:39.309Z,100193.48
2018-11-01T02:45:42.801Z,100190.17
2018-11-01T02:46:46.173Z,100192.44
2018-11-01T02:47:49.604Z,100189.61
2018-11-01T02:48:52.979Z,100189.80
2018-11-01T02:49:56.370Z,100194.34
2018-11-01T02:50:59.823Z,100201.52
2018-11-01T02:52:03.268Z,100202.42
2018-11-01T02:53:06.685Z,100214.77
2018-11-01T02:54:10.074Z,100214.61
2018-11-01T02:55:13.509Z,100219.94
2018-11-01T02:56:17.032Z,100228.07
2018-11-01T02:57:20.555Z,100227.50
2018-11-01T02:58:24.040Z,100229.02
2018-11-01T02:59:27.515Z,100224.13
2018-11-01T03:00:31.633Z,100225.95
2018-11-01T03:01:35.386Z,100221.80
2018-11-01T03:02:39.219Z,100232.53
2018-11-01T03:03:43.500Z,100238.70
2018-11-01T03:04:46.978Z,100236.73
2018-11-01T03:05:50.396Z,100237.93
2018-11-01T03:06:53.916Z,100229.00
2018-11-01T03:07:57.287Z,100220.21
2018-11-01T03:09:00.711Z,100226.14
2018-11-01T03:10:04.705Z,100223.38
2018-11-01T03:11:08.109Z,100219.25
2018-11-01T03:12:11.540Z,100215.16
2018-11-01T03:13:14.955Z,100206.84
2018-11-01T03:14:18.344Z,100208.05
2018-11-01T03:15:21.770Z,100208.25
2018-11-01T03:16:25.194Z,100205.04
2018-11-01T03:17:28.600Z,100211.81
2018-11-01T03:18:31.987Z,100208.91
2018-11-01T03:19:36.063Z,100215.00
2018-11-01T03:20:39.456Z,100212.94
2018-11-01T03:21:42.878Z,100211.11
2018-11-01T03:22:46.251Z,100213.78
2018-11-01T03:23:49.621Z,100205.94
2018-11-01T03:24:53.021Z,100201.92
2018-11-01T03:25:56.435Z,100200.70
2018-11-01T03:26:59.814Z,100198.62
2018-11-01T03:28:03.300Z,100197.14
2018-11-01T03:29:06.884Z,100197.25
2018-11-01T03:30:10.687Z,100196.69
2018-11-01T03:31:14.116Z,100199.02
2018-11-01T03:32:17.539Z,100193.50
2018-11-01T03:33:20.946Z,100202.49
2018-11-01T03:34:24.332Z,100189.63
2018-11-01T03:35:27.754Z,100186.29
2018-11-01T03:36:31.138Z,100186.66
2018-11-01T03:37:34.794Z,100179.65
2018-11-01T03:38:38.227Z,100187.47
2018-11-01T03:39:41.671Z,100185.05
2018-11-01T03:40:45.054Z,100181.00
2018-11-01T03:41:48.458Z,100184.56
2018-11-01T03:42:51.883Z,100185.26
2018-11-01T03:43:55.471Z,100181.81
2018-11-01T03:44:58.934Z,100183.30
2018-11-01T03:46:02.611Z,100174.69
2018-11-01T03:47:06.033Z,100169.55
2018-11-01T03:48:09.407Z,100161.48
2018-11-01T03:49:12.866Z,100163.69
2018-11-01T03:50:16.295Z,100157.47
2018-11-01T03:51:19.743Z,100150.16
2018-11-01T03:52:23.171Z,100154.98
2018-11-01T03:53:26.616Z,100153.59
2018-11-01T03:54:30.022Z,100151.17
2018-11-01T03:55:33.461Z,100156.81
2018-11-01T03:56:36.869Z,100151.88
2018-11-01T03:57:40.981Z,100145.33
2018-11-01T03:58:44.383Z,100146.59
2018-11-01T03:59:47.800Z,100152.44
2018-11-01T04:00:51.217Z,100146.11
2018-11-01T04:01:54.629Z,100150.57
2018-11-01T04:02:58.029Z,100146.93
2018-11-01T04:04:01.501Z,100145.42
2018-11-01T04:05:04.961Z,100138.41
2018-11-01T04:06:08.373Z,100133.80
2018-11-01T04:07:11.754Z,100142.64
2018-11-01T04:08:15.184Z,100138.27
2018-11-01T04:09:18.624Z,100140.45
2018-11-01T04:10:22.136Z,100138.59
2018-11-01T04:11:25.565Z,100133.20
2018-11-01T04:12:29.023Z,100142.29
2018-11-01T04:13:32.485Z,100139.40
2018-11-01T04:14:35.890Z,100141.25
2018-11-01T04:15:39.303Z,100144.72
2018-11-01T04:16:42.732Z,100143.69
2018-11-01T04:17:46.136Z,100157.73
2018-11-01T04:18:49.548Z,100163.56
2018-11-01T04:19:53.004Z,100154.51
2018-11-01T04:20:56.472Z,100154.51
2018-11-01T04:22:06.887Z,100149.20
2018-11-01T04:23:10.377Z,100140.70
2018-11-01T04:24:13.716Z,100133.88
2018-11-01T04:25:17.129Z,100138.38
2018-11-01T04:26:20.592Z,100134.88
2018-11-01T04:27:24.083Z,100134.21
2018-11-01T04:28:27.495Z,100132.34
2018-11-01T04:29:30.874Z,100130.30
2018-11-01T04:30:34.485Z,100131.77
2018-11-01T04:31:37.907Z,100129.14
2018-11-01T04:32:41.353Z,100141.08
2018-11-01T04:33:44.959Z,100135.46
2018-11-01T04:34:48.186Z,100141.20
2018-11-01T04:35:51.690Z,100146.41
2018-11-01T04:36:55.127Z,100150.09
2018-11-01T04:37:58.527Z,100145.70
2018-11-01T04:39:01.961Z,100151.12
2018-11-01T04:40:06.279Z,100151.64
2018-11-01T04:41:09.732Z,100150.13
2018-11-01T04:42:13.172Z,100143.36
2018-11-01T04:43:16.603Z,100144.61
2018-11-01T04:44:20.085Z,100143.32
2018-11-01T04:45:23.484Z,100148.84
2018-11-01T04:46:26.925Z,100144.22
2018-11-01T04:47:30.379Z,100155.84
2018-11-01T04:48:33.878Z,100163.81
2018-11-01T04:49:37.417Z,100158.41
2018-11-01T04:50:40.844Z,100163.94
2018-11-01T04:51:44.252Z,100157.88
2018-11-01T04:52:47.686Z,100163.71
2018-11-01T04:53:51.203Z,100158.90
2018-11-01T04:54:54.956Z,100156.74
2018-11-01T04:55:58.362Z,100151.57
2018-11-01T04:57:01.797Z,100161.23
2018-11-01T04:58:05.494Z,100150.22
2018-11-01T04:59:09.035Z,100142.86
2018-11-01T05:00:13.895Z,100139.07
2018-11-01T05:01:21.240Z,100140.12
2018-11-01T05:02:24.661Z,100145.31
2018-11-01T05:03:28.196Z,100141.84
2018-11-01T05:04:31.652Z,100136.34
2018-11-01T05:05:35.319Z,100129.00
2018-11-01T05:06:38.706Z,100125.66
2018-11-01T05:07:42.111Z,100135.30
2018-11-01T05:08:45.597Z,100139.22
2018-11-01T05:09:49.066Z,100123.24
2018-11-01T05:10:52.460Z,100125.52
2018-11-01T05:11:55.842Z,100123.58
2018-11-01T05:12:59.284Z,100128.75
2018-11-01T05:14:03.230Z,100126.69
2018-11-01T05:15:07.358Z,100128.98
2018-11-01T05:16:10.705Z,100138.16
2018-11-01T05:17:14.082Z,100133.11
2018-11-01T05:18:17.471Z,100141.84
2018-11-01T05:19:20.923Z,100140.11
2018-11-01T05:20:24.369Z,100142.55
2018-11-01T05:21:27.790Z,100140.58
2018-11-01T05:22:31.168Z,100131.75
2018-11-01T05:23:34.668Z,100131.06
2018-11-01T05:24:38.191Z,100130.59
2018-11-01T05:25:41.568Z,100128.06
2018-11-01T05:26:44.968Z,100119.08
2018-11-01T05:27:48.369Z,100116.06
2018-11-01T05:28:51.758Z,100120.44
2018-11-01T05:29:55.198Z,100114.81
2018-11-01T05:30:58.617Z,100118.85
2018-11-01T05:32:02.061Z,100114.84
2018-11-01T05:33:05.780Z,100120.23
2018-11-01T05:34:09.142Z,100116.90
2018-11-01T05:35:12.584Z,100122.31
2018-11-01T05:36:15.957Z,100120.22
2018-11-01T05:37:19.343Z,100118.84
2018-11-01T05:38:22.745Z,100127.38
2018-11-01T05:39:26.152Z,100125.98
2018-11-01T05:40:29.555Z,100123.67
2018-11-01T05:41:32.990Z,100125.25
2018-11-01T05:42:36.491Z,100127.41
2018-11-01T05:43:39.858Z,100125.55
2018-11-01T05:44:43.266Z,100125.55
2018-11-01T05:45:46.665Z,100123.67
2018-11-01T05:46:50.083Z,100119.98
2018-11-01T05:47:53.490Z,100129.39
2018-11-01T05:48:56.893Z,100130.64
2018-11-01T05:50:00.311Z,100126.07
2018-11-01T05:51:03.715Z,100112.69
2018-11-01T05:52:07.550Z,100122.61
2018-11-01T05:53:10.964Z,100127.88
2018-11-01T05:54:14.855Z,100123.64
2018-11-01T05:55:18.278Z,100125.37
2018-11-01T05:56:21.711Z,100124.25
2018-11-01T05:57:25.274Z,100120.69
2018-11-01T05:58:28.685Z,100119.77
2018-11-01T05:59:32.080Z,100114.38
2018-11-01T06:00:35.726Z,100114.63
2018-11-01T06:01:43.319Z,100112.35
2018-11-01T06:02:49.295Z,100112.35
2018-11-01T06:03:52.696Z,100111.91
2018-11-01T06:04:56.128Z,100111.00
2018-11-01T06:05:59.529Z,100112.86
2018-11-01T06:07:02.996Z,100105.37
2018-11-01T06:08:08.714Z,100107.23
2018-11-01T06:09:16.269Z,100099.79
2018-11-01T06:10:19.680Z,100109.09
2018-11-01T06:11:23.087Z,100110.83
2018-11-01T06:12:26.566Z,100115.19
2018-11-01T06:13:29.931Z,100109.20
2018-11-01T06:14:33.389Z,100109.62
2018-11-01T06:15:36.878Z,100101.12
2018-11-01T06:16:40.285Z,100107.05
2018-11-01T06:17:43.680Z,100102.17
2018-11-01T06:18:47.069Z,100107.91
2018-11-01T06:19:50.537Z,100105.69
2018-11-01T06:20:53.946Z,100103.50
2018-11-01T06:21:57.384Z,100120.06
2018-11-01T06:23:00.970Z,100114.87
2018-11-01T06:24:04.695Z,100124.70
2018-11-01T06:25:08.764Z,100134.27
2018-11-01T06:26:12.179Z,100135.08
2018-11-01T06:27:15.623Z,100137.06
2018-11-01T06:28:19.000Z,100148.01
2018-11-01T06:29:22.393Z,100147.58
2018-11-01T06:30:25.814Z,100155.17
2018-11-01T06:31:29.233Z,100150.03
2018-11-01T06:32:32.637Z,100150.95
2018-11-01T06:33:36.058Z,100151.77
2018-11-01T06:34:43.227Z,100152.52
2018-11-01T06:35:48.259Z,100155.30
2018-11-01T06:36:51.739Z,100155.99
2018-11-01T06:37:55.176Z,100157.35
2018-11-01T06:38:58.583Z,100161.16
2018-11-01T06:40:02.055Z,100164.38
2018-11-01T06:41:05.476Z,100172.05
2018-11-01T06:42:08.972Z,100180.20
2018-11-01T06:43:12.414Z,100178.14
2018-11-01T06:44:15.827Z,100185.23
2018-11-01T06:45:19.416Z,100187.07
2018-11-01T06:46:22.824Z,100183.63
2018-11-01T06:47:26.224Z,100185.46
2018-11-01T06:48:29.653Z,100187.84
2018-11-01T06:49:33.169Z,100185.20
2018-11-01T06:50:36.729Z,100184.86
2018-11-01T06:51:40.107Z,100184.16
2018-11-01T06:52:43.501Z,100181.84
2018-11-01T06:53:46.917Z,100181.14
2018-11-01T06:54:50.378Z,100183.78
2018-11-01T06:55:53.771Z,100183.09
2018-11-01T06:56:57.144Z,100171.77
2018-11-01T06:58:00.692Z,100182.78
2018-11-01T06:59:05.286Z,100178.77
2018-11-01T07:00:12.268Z,100181.05
2018-11-01T07:01:15.663Z,100181.73
2018-11-01T07:02:19.060Z,100182.31
2018-11-01T07:03:22.448Z,100183.00
2018-11-01T07:04:26.050Z,100186.32
2018-11-01T07:05:29.465Z,100185.25
2018-11-01T07:06:33.361Z,100188.92
2018-11-01T07:07:37.207Z,100183.41
2018-11-01T07:08:40.585Z,100176.05
2018-11-01T07:09:43.972Z,100184.31
2018-11-01T07:10:47.365Z,100186.03
2018-11-01T07:11:51.157Z,100180.37
2018-11-01T07:12:54.553Z,100182.42
2018-11-01T07:13:57.952Z,100187.23
2018-11-01T07:15:01.374Z,100181.60
2018-11-01T07:16:05.327Z,100179.19
2018-11-01T07:17:08.853Z,100181.78
2018-11-01T07:18:12.283Z,100176.39
2018-11-01T07:19:15.723Z,100168.81
2018-11-01T07:20:19.151Z,100171.09
2018-11-01T07:21:22.682Z,100167.64
2018-11-01T07:22:26.092Z,100165.46
2018-11-01T07:23:29.526Z,100162.78
2018-11-01T07:24:32.960Z,100162.09
2018-11-01T07:25:36.648Z,100163.00
2018-11-01T07:26:39.905Z,100157.27
2018-11-01T07:27:43.371Z,100163.67
2018-11-01T07:28:46.860Z,100158.74
2018-11-01T07:29:50.644Z,100151.63
2018-11-01T07:30:54.112Z,100150.59
2018-11-01T07:31:57.514Z,100152.87
2018-11-01T07:33:00.993Z,100155.39
2018-11-01T07:34:04.450Z,100151.58
2018-11-01T07:35:08.447Z,100145.03
2018-11-01T07:36:11.872Z,100143.66
2018-11-01T07:37:15.552Z,100145.94
2018-11-01T07:38:18.985Z,100140.20
2018-11-01T07:39:22.496Z,100139.17
2018-11-01T07:40:26.062Z,100148.80
2018-11-01T07:41:29.628Z,100145.02
2018-11-01T07:42:34.210Z,100145.08
2018-11-01T07:43:37.864Z,100146.22
2018-11-01T07:44:41.442Z,100153.20
2018-11-01T07:45:44.848Z,100155.79
2018-11-01T07:46:48.392Z,100159.08
2018-11-01T07:47:51.952Z,100164.28
2018-11-01T07:48:55.369Z,100160.59
2018-11-01T07:49:58.779Z,100167.57
2018-11-01T07:51:02.196Z,100165.16
2018-11-01T07:52:05.698Z,100162.17
2018-11-01T07:53:09.163Z,100169.37
2018-11-01T07:54:12.938Z,100164.45
2018-11-01T07:55:16.605Z,100162.84
2018-11-01T07:56:20.011Z,100157.08
2018-11-01T07:57:23.493Z,100153.52
2018-11-01T07:58:27.017Z,100153.52
2018-11-01T07:59:30.324Z,100148.02
2018-11-01T08:00:34.255Z,100148.83
2018-11-01T08:01:37.950Z,100143.33
2018-11-01T08:02:42.020Z,100145.51
2018-11-01T08:03:45.750Z,100142.86
2018-11-01T08:04:49.142Z,100141.72
2018-11-01T08:05:54.849Z,100139.88
2018-11-01T08:06:58.852Z,100146.28
2018-11-01T08:08:02.493Z,100140.08
2018-11-01T08:09:08.628Z,100136.52
2018-11-01T08:10:14.999Z,100127.70
2018-11-01T08:11:18.453Z,100130.78
2018-11-01T08:12:21.902Z,100128.04
2018-11-01T08:13:25.361Z,100124.72
2018-11-01T08:14:29.041Z,100118.98
2018-11-01T08:15:32.616Z,100118.98
2018-11-01T08:16:36.240Z,100117.38
2018-11-01T08:17:39.732Z,100118.75
2018-11-01T08:18:43.274Z,100120.12
2018-11-01T08:19:46.907Z,100114.97
2018-11-01T08:20:50.546Z,100111.17
2018-11-01T08:21:53.868Z,100109.64
2018-11-01T08:22:57.280Z,100106.42
2018-11-01T08:24:02.184Z,100106.28
2018-11-01T08:25:05.861Z,100118.18
2018-11-01T08:26:09.272Z,100117.47
2018-11-01T08:27:12.693Z,100111.58
2018-11-01T08:28:16.168Z,100116.83
2018-11-01T08:29:20.541Z,100114.28
2018-11-01T08:30:24.974Z,100114.44
2018-11-01T08:31:29.588Z,100110.42
2018-11-01T08:32:33.973Z,100117.62
2018-11-01T08:33:38.600Z,100118.75
2018-11-01T08:34:43.017Z,100113.36
2018-11-01T08:35:47.474Z,100118.84
2018-11-01T08:36:51.907Z,100119.33
2018-11-01T08:37:56.384Z,100112.13
2018-11-01T08:38:59.754Z,100115.58
2018-11-01T08:40:03.512Z,100118.83
2018-11-01T08:41:06.948Z,100117.97
2018-11-01T08:42:10.400Z,100113.52
2018-11-01T08:43:13.811Z,100119.48
2018-11-01T08:44:17.219Z,100113.82
2018-11-01T08:45:20.625Z,100112.81
2018-11-01T08:46:24.133Z,100102.86
2018-11-01T08:47:27.588Z,100108.50
2018-11-01T08:48:30.974Z,100100.66
2018-11-01T08:49:34.555Z,100102.97
2018-11-01T08:50:37.926Z,100095.42
2018-11-01T08:51:41.319Z,100101.72
2018-11-01T08:52:44.994Z,100089.25
2018-11-01T08:53:48.389Z,100092.00
2018-11-01T08:54:51.749Z,100095.55
2018-11-01T08:55:55.251Z,100090.97
2018-11-01T08:56:58.637Z,100085.00
2018-11-01T08:58:02.085Z,100090.16
2018-11-01T08:59:05.995Z,100090.97
2018-11-01T09:00:10.971Z,100090.16
2018-11-01T09:01:14.469Z,100098.07
2018-11-01T09:02:17.914Z,100095.89
2018-11-01T09:03:21.730Z,100086.27
2018-11-01T09:04:25.136Z,100081.58
2018-11-01T09:05:28.541Z,100077.45
2018-11-01T09:06:31.987Z,100073.90
2018-11-01T09:07:35.989Z,100067.59
2018-11-01T09:08:39.353Z,100068.63
2018-11-01T09:09:43.261Z,100068.41
2018-11-01T09:10:46.743Z,100063.14
2018-11-01T09:11:50.406Z,100069.77
2018-11-01T09:12:53.902Z,100069.77
2018-11-01T09:13:57.296Z,100074.80
2018-11-01T09:15:00.817Z,100082.14
2018-11-01T09:16:04.511Z,100089.02
2018-11-01T09:17:08.815Z,100095.66
2018-11-01T09:18:12.254Z,100105.28
2018-11-01T09:19:15.741Z,100108.83
2018-11-01T09:20:19.144Z,100117.08
2018-11-01T09:21:22.581Z,100118.45
2018-11-01T09:22:25.990Z,100116.27
2018-11-01T09:23:29.422Z,100111.58
2018-11-01T09:24:33.507Z,100103.91
2018-11-01T09:25:37.511Z,100108.83
2018-11-01T09:26:41.326Z,100109.06
2018-11-01T09:27:44.889Z,100111.58
2018-11-01T09:28:48.406Z,100108.59
2018-11-01T09:29:51.968Z,100109.41
2018-11-01T09:30:55.530Z,100106.42
2018-11-01T09:31:59.146Z,100106.42
2018-11-01T09:33:02.734Z,100102.06
2018-11-01T09:34:06.338Z,100110.30
2018-11-01T09:35:13.035Z,100113.05
2018-11-01T09:36:16.428Z,100119.45
2018-11-01T09:37:19.848Z,100118.08
2018-11-01T09:38:23.283Z,100119.22
2018-11-01T09:39:26.717Z,100115.33
2018-11-01T09:40:30.161Z,100115.10
2018-11-01T09:41:33.634Z,100116.24
2018-11-01T09:42:37.088Z,100114.30
2018-11-01T09:43:41.446Z,100117.62
2018-11-01T09:44:44.869Z,100113.26
2018-11-01T09:45:48.556Z,100115.20
2018-11-01T09:46:52.265Z,100110.27
2018-11-01T09:47:55.519Z,100110.51
2018-11-01T09:48:58.909Z,100109.13
2018-11-01T09:50:02.440Z,100108.66
2018-11-01T09:51:07.769Z,100111.41
2018-11-01T09:52:11.533Z,100108.66
2018-11-01T09:53:14.920Z,100106.48
2018-11-01T09:54:18.371Z,100107.05
2018-11-01T09:55:21.870Z,100107.59
2018-11-01T09:56:25.488Z,100112.55
2018-11-01T09:57:28.903Z,100114.73
2018-11-01T09:58:32.297Z,100111.72
2018-11-01T09:59:35.957Z,100115.03
2018-11-01T10:00:39.374Z,100116.98
2018-11-01T10:01:42.753Z,100120.30
2018-11-01T10:02:46.142Z,100123.61
2018-11-01T10:03:49.550Z,100124.19
2018-11-01T10:04:52.976Z,100120.30
2018-11-01T10:05:56.381Z,100123.05
2018-11-01T10:06:59.829Z,100125.80
2018-11-01T10:08:03.368Z,100117.55
2018-11-01T10:09:08.252Z,100115.37
2018-11-01T10:10:12.627Z,100117.55
2018-11-01T10:11:16.004Z,100114.80
2018-11-01T10:12:19.732Z,100113.42
2018-11-01T10:13:23.123Z,100114.80
2018-11-01T10:14:26.540Z,100109.30
2018-11-01T10:15:30.232Z,100113.42
2018-11-01T10:16:34.452Z,100114.23
2018-11-01T10:17:38.507Z,100116.41
2018-11-01T10:18:41.534Z,100115.61
2018-11-01T10:19:44.944Z,100117.78
2018-11-01T10:20:48.467Z,100122.47
2018-11-01T10:21:51.925Z,100118.35
2018-11-01T10:22:55.648Z,100119.16
2018-11-01T10:23:58.992Z,100126.59
2018-11-01T10:25:02.370Z,100124.42
2018-11-01T10:26:06.118Z,100125.80
2018-11-01T10:27:19.511Z,100131.29
2018-11-01T10:28:13.139Z,100129.34
2018-11-01T10:29:16.594Z,100138.16
2018-11-01T10:30:21.240Z,100132.42
2018-11-01T10:31:24.770Z,100134.38
2018-11-01T10:32:28.536Z,100133.00
2018-11-01T10:33:31.973Z,100134.14
2018-11-01T10:34:35.369Z,100133.57
2018-11-01T10:35:38.769Z,100137.92
2018-11-01T10:36:42.138Z,100133.57
2018-11-01T10:37:45.544Z,100129.21
2018-11-01T10:38:49.000Z,100130.82
2018-11-01T10:39:52.464Z,100127.27
2018-11-01T10:40:55.962Z,100130.59
2018-11-01T10:41:59.380Z,100127.27
2018-11-01T10:43:02.883Z,100129.21
2018-11-01T10:44:06.457Z,100120.16
2018-11-01T10:45:10.493Z,100126.23
2018-11-01T10:46:14.046Z,100122.10
2018-11-01T10:47:17.437Z,100120.49
2018-11-01T10:48:20.850Z,100116.38
2018-11-01T10:49:24.241Z,100126.23
2018-11-01T10:50:27.622Z,100109.50
2018-11-01T10:51:31.034Z,100117.17
2018-11-01T10:52:35.057Z,100110.07
2018-11-01T10:53:38.641Z,100099.65
2018-11-01T10:54:42.071Z,100104.34
2018-11-01T10:55:45.471Z,100100.79
2018-11-01T10:56:51.326Z,100097.23
2018-11-01T10:57:54.838Z,100096.66
2018-11-01T10:58:58.603Z,100094.48
2018-11-01T11:00:02.217Z,100091.97
2018-11-01T11:01:11.322Z,100094.16
2018-11-01T11:02:16.365Z,100088.66
2018-11-01T11:03:19.802Z,100082.12
2018-11-01T11:04:23.200Z,100084.53
2018-11-01T11:05:26.682Z,100074.68
2018-11-01T11:06:30.158Z,100074.45
2018-11-01T11:07:33.555Z,100070.32
2018-11-01T11:08:37.159Z,100068.95
2018-11-01T11:09:40.525Z,100059.09
2018-11-01T11:10:43.991Z,100060.70
2018-11-01T11:11:47.416Z,100053.59
2018-11-01T11:12:50.843Z,100044.31
2018-11-01T11:13:54.446Z,100047.06
2018-11-01T11:14:57.881Z,100046.27
2018-11-01T11:16:01.323Z,100040.53
2018-11-01T11:17:04.902Z,100044.66
2018-11-01T11:18:08.508Z,100039.96
2018-11-01T11:19:11.878Z,100038.59
2018-11-01T11:20:15.429Z,100041.91
2018-11-01T11:21:18.833Z,100036.14
2018-11-01T11:22:22.252Z,100032.59
2018-11-01T11:23:25.678Z,100029.05
2018-11-01T11:24:29.108Z,100029.28
2018-11-01T11:25:32.521Z,100033.09
2018-11-01T11:26:35.961Z,100035.27
2018-11-01T11:27:39.596Z,100041.80
2018-11-01T11:28:43.041Z,100042.61
2018-11-01T11:29:46.446Z,100044.22
2018-11-01T11:30:49.995Z,100043.75
2018-11-01T11:31:53.426Z,100045.83
2018-11-01T11:32:56.952Z,100050.98
2018-11-01T11:34:00.349Z,100060.03
2018-11-01T11:35:03.860Z,100064.05
2018-11-01T11:36:08.388Z,100061.88
2018-11-01T11:37:12.076Z,100070.92
2018-11-01T11:38:16.217Z,100076.99
2018-11-01T11:39:20.644Z,100075.95
2018-11-01T11:40:24.161Z,100074.34
2018-11-01T11:41:28.043Z,100080.41
2018-11-01T11:42:31.531Z,100078.56
2018-11-01T11:43:35.024Z,100081.65
2018-11-01T11:44:38.472Z,100076.72
2018-11-01T11:45:42.259Z,100073.51
2018-11-01T11:46:45.644Z,100070.26
2018-11-01T11:47:49.099Z,100071.16
2018-11-01T11:48:52.641Z,100073.67
2018-11-01T11:49:56.044Z,100076.19
2018-11-01T11:50:59.905Z,100078.47
2018-11-01T11:52:03.330Z,100076.86
2018-11-01T11:53:06.760Z,100076.05
2018-11-01T11:54:10.158Z,100083.59
2018-11-01T11:55:13.860Z,100080.03
2018-11-01T11:56:17.377Z,100087.80
2018-11-01T11:57:20.772Z,100087.80
2018-11-01T11:58:24.207Z,100086.73
2018-11-01T11:59:27.620Z,100087.54
2018-11-01T12:00:31.009Z,100093.37
2018-11-01T12:01:34.474Z,100092.56
2018-11-01T12:02:37.900Z,100097.02
2018-11-01T12:03:41.379Z,100098.16
2018-11-01T12:04:44.969Z,100091.86
2018-11-01T12:05:48.419Z,100095.97